Hunt Field
KLND : now visible

Airfield :











YOU CAN JOIN US ON...

 
LOGIN :

Register | Disclaimer

   EN    FR    IT 

 









Legend :    VFR   Marginal VFR   IFR   Intensive IFR   Very Intensive IFR
Visi :
Ceiling :
>= 8 km
>= 3000ft
5 to 8 km
1000 to 3000 ft
1500m to 5 km
500 to 1000 ft
800 to 1500m
200 to 500 ft
< 800m
< 200 ft
Symbols :   Thunderstorms  Fog  Heavy snow  Heavy precipitations  Wind > 20 kt







- Airport Elevation : 5586 ft


KLND - Hunt Field

CURRENT METAR :
  • 200805Z AUTO 30008KT 3/4SM -SN BR VV006 M01/M01 A2985 RMK AO2 P0000 T10061011

EXPIRED METARs :
  • 200753Z AUTO 31006KT 1 1/4SM -SN BR OVC006 M01/M01 A2985 RMK AO2 SLP111 P0001 T10061011
  • 200735Z AUTO 32007KT 2 1/2SM -SN BR OVC003 M01/M01 A2986 RMK AO2 P0001 T10061011
  • 200709Z AUTO 32007KT 1SM -SN BR VV004 M01/M01 A2986 RMK AO2 P0000 T10061011
  • 200653Z AUTO 32008KT 3/4SM -SN BR VV004 M01/M01 A2987 RMK AO2 SLP120 P0002 T10061011 400561006
  • 200633Z AUTO 32007KT 1 1/4SM -SN BR OVC004 M01/M01 A2988 RMK AO2 P0001 T10061011
  • 200606Z AUTO 32008KT 3/4SM -SN BR VV004 M01/M01 A2988 RMK AO2 P0001 T10061011
  • 200553Z AUTO 32008KT 1SM -SN BR VV003 M01/M01 A2989 RMK AO2 SLP127 P0001 60023 T10061011 10033 21006 50000

TAF KLND
Valid from the 20 at 06:00 until the 21 at 06:00 UTC


200535Z 2006/2106 32007KT 1SM -SN OVC004
FM200800 32006KT 5SM -SHSN SCT007 OVC015
FM201600 VRB05KT P6SM VCSH SCT015 BKN025
FM202000 VRB05KT P6SM SCT025 BKN040
FM210100 31006KT P6SM VCSH OVC023
KZLC FIR / North America



MET'MAP, your aeronautical weather chart ! - Copyright ORBIFLY December 2007 - Disclaimer

ORBIFLY MET'MAP TEAM :

Programming & Development : Alexandra Zaïnal
Concept & Development : Baudouin d'Aumeries
Co-Development & Prog : Marc-Olivier Méhu
Technical & hardware support : Manuel Goepfert

Contact : metmap@orbifly.com




SOURCES & CREDITS :

   NOAA       Earth
Advisory